Time;durP1;ratioP1;P1;durP2;ratioP2;P2;SDS_P1;SDS_P2;PMS_P1;PMS_P2;Temp;Humidity;BMP_temperature;BMP_pressure;BME280_temperature;BME280_humidity;BME280_pressure;Samples;Min_cycle;Max_cycle;Signal;HPM_P1;HPM_P2
2021/08/16 00:01:56;;;;;;;9.60;7.43;;;;;;;20.37;59.93;99748.34;128389;1095;22343;-76
2021/08/16 00:04:26;;;;;;;12.15;7.33;;;;;;;20.40;60.02;99733.63;128321;1095;22353;-75
2021/08/16 00:06:55;;;;;;;8.15;6.55;;;;;;;20.42;59.96;99736.86;128620;1095;22747;-75
2021/08/16 00:09:26;;;;;;;8.98;6.78;;;;;;;20.43;59.71;99733.95;128800;1095;22347;-76
2021/08/16 00:12:00;;;;;;;10.48;6.93;;;;;;;20.46;59.69;99727.28;128377;1095;22359;-76
2021/08/16 00:14:30;;;;;;;8.97;6.70;;;;;;;20.49;59.24;99736.69;128343;1095;22369;-75
2021/08/16 00:16:59;;;;;;;10.65;6.83;;;;;;;20.48;59.19;99730.51;128405;1095;22319;-75
2021/08/16 00:19:29;;;;;;;11.15;6.73;;;;;;;20.50;59.34;99728.41;128383;1093;22365;-76
2021/08/16 00:21:59;;;;;;;6.78;6.05;;;;;;;20.52;59.07;99730.85;128378;1095;22411;-77
2021/08/16 00:24:33;;;;;;;9.55;6.53;;;;;;;20.54;59.06;99723.38;128533;1093;22320;-76
2021/08/16 00:27:04;;;;;;;9.98;7.33;;;;;;;20.59;58.48;99720.75;128773;1094;22345;-75
2021/08/16 00:29:34;;;;;;;10.87;7.50;;;;;;;20.61;58.83;99715.95;128354;1095;22337;-76
2021/08/16 00:32:04;;;;;;;11.15;6.75;;;;;;;20.61;58.75;99724.00;128321;1095;22343;-77
2021/08/16 00:34:36;;;;;;;13.48;6.85;;;;;;;20.60;58.51;99723.20;128533;1095;22363;-76
2021/08/16 00:37:09;;;;;;;10.83;7.08;;;;;;;20.62;58.57;99717.56;128591;1095;24180;-77
2021/08/16 00:39:40;;;;;;;10.35;6.83;;;;;;;20.63;58.52;99725.39;128635;1095;22366;-76
2021/08/16 00:42:12;;;;;;;10.80;7.15;;;;;;;20.59;58.08;99720.75;128421;1095;23131;-76
2021/08/16 00:44:42;;;;;;;11.00;6.78;;;;;;;20.54;58.10;99720.70;128349;1094;22347;-77
2021/08/16 00:47:13;;;;;;;9.40;6.08;;;;;;;20.45;58.30;99715.72;128658;1095;22446;-75
2021/08/16 00:49:43;;;;;;;12.50;7.53;;;;;;;20.40;58.31;99712.17;128383;1095;25011;-76
2021/08/16 00:52:12;;;;;;;13.15;7.90;;;;;;;20.39;58.81;99702.48;128352;1095;24522;-76
2021/08/16 00:54:42;;;;;;;10.60;7.40;;;;;;;20.42;58.52;99688.58;128355;1095;24493;-76
2021/08/16 00:57:12;;;;;;;10.83;7.45;;;;;;;20.43;58.92;99685.66;128385;1095;22378;-76
2021/08/16 00:59:42;;;;;;;10.35;6.98;;;;;;;20.46;59.03;99687.04;128385;1095;22794;-75
2021/08/16 01:02:12;;;;;;;11.05;7.53;;;;;;;20.46;58.95;99678.99;128347;1095;22321;-76
2021/08/16 01:04:42;;;;;;;8.20;6.63;;;;;;;20.45;58.96;99683.52;128363;1095;22353;-75
2021/08/16 01:07:12;;;;;;;11.20;6.68;;;;;;;20.44;58.93;99676.54;128673;1095;22362;-76
2021/08/16 01:09:41;;;;;;;10.90;7.38;;;;;;;20.42;59.06;99684.02;128284;1098;22369;-76
2021/08/16 01:12:12;;;;;;;11.30;7.53;;;;;;;20.40;58.73;99680.79;128083;1098;22355;-76
2021/08/16 01:14:42;;;;;;;11.50;7.25;;;;;;;20.40;58.96;99677.30;128097;1098;22358;-76
2021/08/16 01:17:13;;;;;;;11.05;7.28;;;;;;;20.40;59.40;99672.73;128329;1098;22528;-76
2021/08/16 01:19:43;;;;;;;10.13;7.43;;;;;;;20.44;59.18;99662.32;128324;1098;22350;-75
2021/08/16 01:22:13;;;;;;;10.93;6.85;;;;;;;20.45;59.14;99662.06;128318;1098;24193;-76
2021/08/16 01:24:51;;;;;;;9.95;7.40;;;;;;;20.50;58.79;99664.01;128488;1098;22363;-76
2021/08/16 01:27:21;;;;;;;10.38;6.65;;;;;;;20.50;59.23;99658.64;128195;1095;22354;-75
2021/08/16 01:29:51;;;;;;;17.53;7.18;;;;;;;20.50;58.56;99655.96;128556;1095;22370;-76
2021/08/16 01:32:21;;;;;;;9.83;7.20;;;;;;;20.51;58.84;99659.48;128414;1095;22344;-76
2021/08/16 01:34:51;;;;;;;10.60;7.23;;;;;;;20.53;58.81;99658.18;128421;1095;24150;-76
2021/08/16 01:37:21;;;;;;;7.85;6.70;;;;;;;20.55;58.39;99653.36;128706;1095;24499;-76
2021/08/16 01:39:51;;;;;;;8.47;6.90;;;;;;;20.56;58.69;99643.43;128398;1095;22343;-76
2021/08/16 01:42:20;;;;;;;9.08;6.00;;;;;;;20.57;58.14;99651.25;128657;1095;22359;-76
2021/08/16 01:44:50;;;;;;;10.78;7.28;;;;;;;20.57;58.60;99653.13;128379;1095;22347;-76
2021/08/16 01:47:20;;;;;;;9.80;6.48;;;;;;;20.56;58.46;99641.58;128501;1093;24512;-76
2021/08/16 01:49:49;;;;;;;12.78;6.55;;;;;;;20.55;58.47;99637.25;128707;1095;22348;-76
2021/08/16 01:52:19;;;;;;;8.18;6.43;;;;;;;20.54;58.68;99646.38;128408;1095;22378;-77
2021/08/16 01:54:48;;;;;;;8.63;6.30;;;;;;;20.55;58.66;99647.98;128382;1095;22347;-76
2021/08/16 01:57:18;;;;;;;9.08;6.78;;;;;;;20.51;58.88;99648.75;128681;1095;22352;-76
2021/08/16 01:59:48;;;;;;;8.93;6.43;;;;;;;20.45;58.74;99643.28;128689;1093;22344;-76
2021/08/16 02:02:19;;;;;;;10.13;6.43;;;;;;;20.41;58.96;99644.84;128536;1095;22354;-75
2021/08/16 02:04:53;;;;;;;9.68;6.88;;;;;;;20.38;58.88;99644.53;128393;1095;22363;-76
2021/08/16 02:07:23;;;;;;;10.77;6.67;;;;;;;20.36;59.70;99638.59;128306;1095;22350;-75
2021/08/16 02:09:52;;;;;;;8.93;7.10;;;;;;;20.33;59.44;99637.25;128639;1095;22366;-75
2021/08/16 02:12:22;;;;;;;11.70;7.13;;;;;;;20.32;59.26;99645.52;128648;1095;22859;-75
2021/08/16 02:14:52;;;;;;;7.43;6.08;;;;;;;20.26;59.66;99647.35;128340;1095;25652;-78
2021/08/16 02:17:22;;;;;;;8.93;6.88;;;;;;;20.23;59.62;99639.80;128719;1095;23122;-76
2021/08/16 02:19:52;;;;;;;8.45;7.25;;;;;;;20.17;59.93;99641.59;128084;1098;22349;-76
2021/08/16 02:22:22;;;;;;;7.95;6.48;;;;;;;20.12;59.86;99640.70;128279;1097;22379;-75
2021/08/16 02:24:52;;;;;;;9.73;6.40;;;;;;;20.08;59.94;99635.03;128266;1098;22380;-75
2021/08/16 02:27:22;;;;;;;7.67;6.83;;;;;;;20.04;60.49;99631.23;128244;1098;23243;-77
2021/08/16 02:30:18;;;;;;;8.23;7.15;;;;;;;20.02;60.88;99627.16;128495;1098;22523;-75
2021/08/16 02:32:49;;;;;;;8.08;6.40;;;;;;;20.03;60.63;99628.80;128397;1098;22414;-76
2021/08/16 02:35:19;;;;;;;8.95;7.40;;;;;;;20.04;60.61;99622.38;128268;1097;22380;-76
2021/08/16 02:37:56;;;;;;;10.13;7.03;;;;;;;20.01;60.72;99622.87;128199;1095;24185;-75
2021/08/16 02:40:34;;;;;;;10.75;8.75;;;;;;;19.97;60.82;99623.36;128659;1095;23090;-77
2021/08/16 02:43:12;;;;;;;9.35;7.33;;;;;;;19.96;60.79;99623.63;128435;1095;24492;-76
2021/08/16 02:45:52;;;;;;;10.90;8.18;;;;;;;19.93;61.17;99627.60;128501;1095;22345;-76
2021/08/16 02:48:26;;;;;;;9.38;7.13;;;;;;;19.89;61.61;99622.96;128635;1095;24222;-76
2021/08/16 02:50:56;;;;;;;11.88;8.58;;;;;;;19.86;61.66;99623.45;128688;1095;22344;-76
2021/08/16 02:53:25;;;;;;;10.75;8.30;;;;;;;19.85;61.59;99632.56;128322;1093;22336;-77
2021/08/16 02:55:56;;;;;;;8.78;7.95;;;;;;;19.82;61.72;99619.64;128306;1093;22339;-76
2021/08/16 02:58:26;;;;;;;10.55;8.50;;;;;;;19.79;62.03;99620.95;128596;1095;22346;-76
2021/08/16 03:00:55;;;;;;;12.20;8.03;;;;;;;19.74;62.01;99616.33;128354;1095;23112;-76
2021/08/16 03:03:25;;;;;;;12.20;9.50;;;;;;;19.66;62.30;99618.60;128668;1095;22343;-76
2021/08/16 03:05:55;;;;;;;10.53;9.43;;;;;;;19.62;62.76;99622.80;128643;1095;22318;-76
2021/08/16 03:08:25;;;;;;;12.63;10.90;;;;;;;19.57;62.69;99617.38;128608;1095;24236;-76
2021/08/16 03:10:56;;;;;;;18.65;12.60;;;;;;;19.52;62.79;99616.23;128304;1095;22654;-76
2021/08/16 03:13:25;;;;;;;13.95;12.50;;;;;;;19.47;63.02;99620.72;128272;1095;22344;-77
2021/08/16 03:15:55;;;;;;;13.35;12.00;;;;;;;19.46;63.23;99616.39;128346;1095;23637;-76
2021/08/16 03:18:25;;;;;;;14.40;13.10;;;;;;;19.47;63.36;99618.84;128628;1095;22379;-76
2021/08/16 03:20:56;;;;;;;13.10;10.73;;;;;;;19.51;63.54;99613.80;128240;1098;22359;-76
2021/08/16 03:23:27;;;;;;;11.05;9.83;;;;;;;19.54;63.52;99620.55;128155;1098;22344;-76
2021/08/16 03:25:57;;;;;;;11.98;10.20;;;;;;;19.56;63.60;99610.38;128182;1098;24237;-76
2021/08/16 03:28:28;;;;;;;16.53;10.75;;;;;;;19.56;63.38;99605.86;128213;1098;22372;-76
2021/08/16 03:30:58;;;;;;;12.08;10.30;;;;;;;19.55;63.34;99606.90;128254;1097;22363;-76
2021/08/16 03:33:27;;;;;;;13.08;10.45;;;;;;;19.54;62.99;99607.96;128241;1098;22343;-76
2021/08/16 03:35:57;;;;;;;10.90;9.13;;;;;;;19.53;63.71;99603.67;128217;1098;24962;-76
2021/08/16 03:38:27;;;;;;;10.50;8.83;;;;;;;19.48;63.36;99595.54;128261;1095;22350;-76
2021/08/16 03:40:56;;;;;;;11.45;9.23;;;;;;;19.44;63.73;99595.22;128561;1095;22343;-75
2021/08/16 03:43:25;;;;;;;10.38;9.38;;;;;;;19.38;63.67;99590.84;128639;1095;22369;-76
2021/08/16 03:45:55;;;;;;;10.55;9.03;;;;;;;19.30;63.97;99585.09;128582;1095;23161;-76
2021/08/16 03:48:25;;;;;;;12.33;9.30;;;;;;;19.19;64.05;99579.58;128344;1095;22343;-75
2021/08/16 03:50:54;;;;;;;10.13;8.85;;;;;;;19.07;64.13;99581.51;128289;1095;24509;-75
2021/08/16 03:53:24;;;;;;;14.40;10.28;;;;;;;18.99;64.97;99572.02;128317;1095;23111;-76
2021/08/16 03:55:54;;;;;;;12.03;10.73;;;;;;;18.97;65.25;99568.76;128319;1095;22363;-77
2021/08/16 03:58:23;;;;;;;10.00;8.65;;;;;;;18.95;65.11;99562.02;128601;1095;24492;-76
2021/08/16 04:00:53;;;;;;;12.43;9.33;;;;;;;18.94;65.28;99565.75;128608;1094;22350;-76
2021/08/16 04:03:23;;;;;;;12.25;9.40;;;;;;;18.93;65.17;99564.95;128316;1095;22379;-76
2021/08/16 04:05:52;;;;;;;13.30;9.23;;;;;;;18.93;65.66;99570.30;128276;1095;22357;-76
2021/08/16 04:08:22;;;;;;;11.80;10.20;;;;;;;18.95;65.86;99568.18;128293;1095;22683;-75
2021/08/16 04:10:52;;;;;;;14.13;9.58;;;;;;;19.00;65.84;99559.44;128306;1095;22367;-76
2021/08/16 04:13:21;;;;;;;11.08;9.93;;;;;;;19.02;65.63;99557.31;128634;1095;22370;-77
2021/08/16 04:15:51;;;;;;;10.38;9.28;;;;;;;19.03;65.89;99566.98;128256;1096;24202;-77
2021/08/16 04:18:21;;;;;;;11.33;9.25;;;;;;;19.01;66.45;99553.02;128238;1098;24173;-77
2021/08/16 04:20:50;;;;;;;10.80;8.93;;;;;;;19.01;66.31;99564.54;128309;1098;24515;-76
2021/08/16 04:23:20;;;;;;;11.55;9.40;;;;;;;19.02;66.29;99563.47;127975;1101;22399;-76
2021/08/16 04:25:49;;;;;;;14.00;9.18;;;;;;;19.05;66.02;99565.67;127553;1101;22419;-75
2021/08/16 04:28:19;;;;;;;10.73;8.83;;;;;;;19.04;66.15;99571.28;127551;1101;22922;-75
2021/08/16 04:30:49;;;;;;;11.17;10.03;;;;;;;19.05;66.47;99562.19;127663;1101;22411;-76
2021/08/16 04:33:20;;;;;;;12.28;10.28;;;;;;;19.08;66.76;99563.58;127584;1101;23359;-75
2021/08/16 04:35:53;;;;;;;9.93;8.93;;;;;;;19.13;66.66;99561.80;127979;1101;22379;-75
2021/08/16 04:38:23;;;;;;;13.33;9.38;;;;;;;19.22;66.73;99549.61;127988;1101;22977;-76
2021/08/16 04:40:54;;;;;;;10.48;9.20;;;;;;;19.28;65.89;99556.67;127999;1098;22394;-76
2021/08/16 04:43:24;;;;;;;15.28;9.55;;;;;;;19.28;66.24;99553.99;128332;1095;22370;-77
2021/08/16 04:45:53;;;;;;;12.78;9.45;;;;;;;19.30;66.10;99543.05;128355;1095;24489;-76
2021/08/16 04:48:24;;;;;;;15.43;9.85;;;;;;;19.35;66.38;99561.05;128377;1095;22815;-76
2021/08/16 04:50:53;;;;;;;10.85;9.75;;;;;;;19.39;66.49;99556.83;128340;1095;22334;-77
2021/08/16 04:53:23;;;;;;;13.53;11.03;;;;;;;19.48;66.31;99563.40;128316;1095;22351;-76
2021/08/16 04:55:53;;;;;;;14.63;10.53;;;;;;;19.58;66.34;99571.58;128626;1095;22352;-76
2021/08/16 04:58:22;;;;;;;18.25;11.85;;;;;;;19.66;65.88;99571.21;128642;1095;22351;-77
2021/08/16 05:00:52;;;;;;;18.50;12.75;;;;;;;19.74;65.61;99570.77;128635;1095;22397;-75
2021/08/16 05:03:22;;;;;;;18.58;11.53;;;;;;;19.82;65.24;99576.77;128601;1095;23118;-75
2021/08/16 05:05:54;;;;;;;18.00;12.33;;;;;;;19.91;65.50;99580.65;128294;1095;22341;-76
2021/08/16 05:08:23;;;;;;;;;;;;;;;19.90;64.99;99579.84;128394;1095;22362;-75
2021/08/16 05:10:53;;;;;;;28.70;14.85;;;;;;;19.88;65.19;99583.82;128354;1095;21476;-78
2021/08/16 05:13:23;;;;;;;26.43;18.65;;;;;;;19.81;65.00;99593.91;128314;1095;24151;-76
2021/08/16 05:15:52;;;;;;;20.98;15.20;;;;;;;19.72;65.35;99593.51;128199;1098;23000;-75
2021/08/16 05:18:22;;;;;;;14.65;12.50;;;;;;;19.68;65.13;99597.75;128060;1098;22358;-76
2021/08/16 05:20:52;;;;;;;23.60;12.63;;;;;;;19.71;65.56;99587.34;128287;1098;22379;-76
2021/08/16 05:23:21;;;;;;;15.30;12.80;;;;;;;19.79;65.64;99582.62;128229;1098;22510;-75
2021/08/16 05:25:51;;;;;;;14.40;11.50;;;;;;;19.86;65.61;99584.08;128251;1098;22346;-76
2021/08/16 05:28:22;;;;;;;15.48;11.15;;;;;;;19.91;65.25;99583.33;128062;1098;24539;-76
2021/08/16 05:30:52;;;;;;;14.83;11.75;;;;;;;19.94;65.28;99585.52;128035;1101;24113;-75
2021/08/16 05:33:22;;;;;;;14.73;12.35;;;;;;;20.00;65.27;99589.89;127977;1098;22371;-75
2021/08/16 05:35:52;;;;;;;14.95;11.43;;;;;;;20.12;65.57;99592.44;128184;1098;22385;-75
2021/08/16 05:38:21;;;;;;;17.40;12.80;;;;;;;20.24;65.34;99590.45;127995;1098;22537;-75
2021/08/16 05:40:51;;;;;;;19.75;13.18;;;;;;;20.37;65.34;99583.91;128035;1098;24400;-76
2021/08/16 05:43:21;;;;;;;19.30;14.03;;;;;;;20.52;64.62;99588.66;128057;1098;25024;-76
2021/08/16 05:45:50;;;;;;;18.85;13.08;;;;;;;20.65;64.26;99582.89;128136;1098;24501;-76
2021/08/16 05:48:20;;;;;;;19.38;13.13;;;;;;;20.77;64.15;99580.88;128102;1095;22437;-75
2021/08/16 05:50:49;;;;;;;17.35;12.55;;;;;;;20.89;63.72;99580.70;128365;1095;22375;-76
2021/08/16 05:53:19;;;;;;;17.78;11.58;;;;;;;21.00;63.19;99585.13;128068;1098;22368;-76
2021/08/16 05:55:49;;;;;;;16.13;10.20;;;;;;;21.11;62.90;99580.64;127984;1101;22370;-76
2021/08/16 05:58:18;;;;;;;14.98;10.60;;;;;;;21.22;62.72;99587.71;127974;1101;22379;-77
2021/08/16 06:00:48;;;;;;;13.37;9.10;;;;;;;21.36;62.20;99583.58;127970;1101;22388;-77
2021/08/16 06:03:18;;;;;;;12.43;9.60;;;;;;;21.52;62.24;99584.47;127977;1101;22377;-77
2021/08/16 06:05:48;;;;;;;14.80;10.50;;;;;;;21.69;61.56;99584.31;128068;1101;22372;-76
2021/08/16 06:08:17;;;;;;;12.63;8.93;;;;;;;21.83;61.05;99590.06;127609;1101;22464;-77
2021/08/16 06:10:47;;;;;;;18.60;10.60;;;;;;;21.94;61.02;99591.73;127888;1101;22615;-77
2021/08/16 06:13:17;;;;;;;13.63;10.23;;;;;;;22.12;61.09;99592.34;128261;1101;22404;-77
2021/08/16 06:15:46;;;;;;;14.90;10.33;;;;;;;22.34;60.85;99595.70;128321;1098;22433;-75
2021/08/16 06:18:16;;;;;;;15.63;9.90;;;;;;;22.54;60.49;99593.07;128077;1098;22357;-76
2021/08/16 06:20:46;;;;;;;9.50;8.50;;;;;;;22.78;60.10;99600.66;128220;1098;22370;-75
2021/08/16 06:23:15;;;;;;;10.50;8.55;;;;;;;22.98;59.73;99599.91;128246;1098;24502;-76
2021/08/16 06:25:45;;;;;;;14.03;9.33;;;;;;;23.22;59.74;99601.00;128217;1095;22412;-76
2021/08/16 06:28:14;;;;;;;9.13;8.05;;;;;;;23.48;58.56;99599.11;128328;1095;22357;-77
2021/08/16 06:30:44;;;;;;;10.98;8.30;;;;;;;23.87;57.90;99603.93;128324;1095;24491;-77
2021/08/16 06:33:14;;;;;;;11.70;7.67;;;;;;;24.30;56.71;99603.52;128530;1095;22372;-77
2021/08/16 06:35:44;;;;;;;10.03;7.95;;;;;;;24.68;54.89;99602.00;128317;1095;23132;-77
2021/08/16 06:38:22;;;;;;;12.58;7.55;;;;;;;25.12;54.05;99590.38;128549;1095;22404;-77
2021/08/16 06:40:56;;;;;;;9.80;6.85;;;;;;;25.55;52.97;99591.34;128398;1098;22667;-77
2021/08/16 06:43:27;;;;;;;12.83;7.50;;;;;;;25.93;51.71;99599.66;128108;1098;24998;-76
2021/08/16 06:45:57;;;;;;;11.20;7.33;;;;;;;26.27;51.24;99598.72;128319;1098;22367;-76
2021/08/16 06:48:27;;;;;;;9.48;6.68;;;;;;;26.65;50.14;99591.45;128498;1098;22388;-78
2021/08/16 06:50:57;;;;;;;9.45;6.25;;;;;;;27.07;49.07;99597.08;128357;1098;22425;-77
2021/08/16 06:53:26;;;;;;;11.88;6.88;;;;;;;27.44;47.77;99597.01;128230;1098;22274;-77
2021/08/16 06:55:56;;;;;;;10.30;5.68;;;;;;;27.71;46.84;99605.50;128319;1098;22339;-75
2021/08/16 06:58:25;;;;;;;6.23;5.63;;;;;;;28.01;46.03;99612.29;128716;1095;24499;-77
2021/08/16 07:00:55;;;;;;;11.63;6.17;;;;;;;28.36;45.52;99600.70;128631;1095;22359;-76
2021/08/16 07:03:25;;;;;;;8.00;5.70;;;;;;;28.76;44.59;99592.80;128673;1095;23438;-76
2021/08/16 07:05:55;;;;;;;12.17;9.90;;;;;;;29.17;44.64;99596.48;128639;1095;22343;-76
2021/08/16 07:08:24;;;;;;;6.55;5.75;;;;;;;29.61;43.41;99594.84;128577;1095;25598;-75
2021/08/16 07:10:54;;;;;;;9.30;6.40;;;;;;;29.94;41.43;99589.85;128346;1093;25197;-75
2021/08/16 07:13:23;;;;;;;9.80;6.45;;;;;;;30.06;41.05;99600.95;128368;1095;23090;-76
2021/08/16 07:15:53;;;;;;;9.35;5.90;;;;;;;30.25;41.04;99596.05;128650;1095;24489;-76
2021/08/16 07:18:22;;;;;;;9.55;5.55;;;;;;;30.59;40.26;99593.69;128651;1095;22351;-75
2021/08/16 07:20:52;;;;;;;9.78;5.75;;;;;;;31.03;39.94;99594.55;128359;1095;22343;-76
2021/08/16 07:23:22;;;;;;;11.83;5.80;;;;;;;31.24;38.80;99592.73;128655;1093;24227;-76
2021/08/16 07:25:51;;;;;;;11.45;7.88;;;;;;;31.40;38.57;99591.13;128697;1094;22360;-76
2021/08/16 07:28:21;;;;;;;11.68;6.55;;;;;;;31.53;37.52;99594.78;128610;1095;22345;-76
2021/08/16 07:30:50;;;;;;;13.03;8.50;;;;;;;31.53;37.26;99581.13;128661;1095;23125;-76
2021/08/16 07:33:20;;;;;;;13.75;7.50;;;;;;;31.57;36.61;99584.80;128646;1095;22364;-76
2021/08/16 07:35:50;;;;;;;9.55;6.43;;;;;;;31.76;36.76;99584.42;128649;1095;22359;-76
2021/08/16 07:38:21;;;;;;;13.75;6.73;;;;;;;32.14;36.47;99589.07;128748;1094;22793;-77
2021/08/16 07:40:50;;;;;;;6.10;5.30;;;;;;;32.39;35.30;99592.79;128713;1095;22351;-77
2021/08/16 07:43:21;;;;;;;11.47;7.23;;;;;;;32.52;35.39;99589.03;128639;1095;22346;-77
2021/08/16 07:45:51;;;;;;;13.53;5.43;;;;;;;32.75;34.88;99585.93;128646;1095;24486;-77
2021/08/16 07:48:21;;;;;;;7.23;4.88;;;;;;;32.88;34.54;99581.32;128288;1098;24504;-76
2021/08/16 07:50:50;;;;;;;11.73;5.73;;;;;;;32.74;34.38;99585.14;128242;1098;22357;-77
2021/08/16 07:53:20;;;;;;;8.05;5.35;;;;;;;32.76;34.22;99577.41;128126;1098;22910;-77
2021/08/16 07:55:49;;;;;;;7.10;5.05;;;;;;;32.95;34.29;99587.05;128293;1097;22509;-76
2021/08/16 07:58:19;;;;;;;10.50;5.08;;;;;;;33.19;33.74;99589.09;128270;1098;24099;-77
2021/08/16 08:00:48;;;;;;;6.43;5.20;;;;;;;33.40;32.67;99589.05;128277;1097;22468;-77
2021/08/16 08:03:18;;;;;;;8.03;4.73;;;;;;;33.56;32.72;99594.70;128245;1098;22671;-77
2021/08/16 08:05:48;;;;;;;9.98;4.60;;;;;;;33.67;32.49;99593.91;128294;1095;22381;-78
2021/08/16 08:08:17;;;;;;;9.43;4.70;;;;;;;33.60;32.20;99599.16;128708;1095;22359;-76
2021/08/16 08:10:47;;;;;;;11.03;5.28;;;;;;;33.36;32.21;99596.34;128407;1093;22343;-77
2021/08/16 08:13:17;;;;;;;9.58;5.35;;;;;;;33.21;32.46;99595.83;128237;1098;22667;-78
2021/08/16 08:15:47;;;;;;;10.40;4.63;;;;;;;33.38;32.63;99608.53;128274;1098;22353;-78
2021/08/16 08:18:16;;;;;;;;;;;;;;;33.54;32.04;99603.25;128311;1096;22656;-77
2021/08/16 08:20:46;;;;;;;10.25;5.33;;;;;;;33.53;31.99;99598.91;128271;1096;22378;-76
2021/08/16 08:23:16;;;;;;;8.87;5.00;;;;;;;33.63;31.96;99612.17;128314;1098;22343;-81
2021/08/16 08:25:45;;;;;;;7.20;4.47;;;;;;;33.65;31.62;99601.66;128089;1098;22395;-79
2021/08/16 08:28:15;;;;;;;7.80;4.30;;;;;;;33.63;31.58;99603.95;128106;1098;22686;-79
2021/08/16 08:30:46;;;;;;;8.50;4.78;;;;;;;33.66;31.21;99611.48;128176;1098;22402;-79
2021/08/16 08:33:17;;;;;;;8.38;4.80;;;;;;;33.68;31.14;99611.93;128365;1098;22519;-78
2021/08/16 08:35:49;;;;;;;6.18;4.28;;;;;;;33.63;31.04;99614.91;128165;1098;22355;-78
2021/08/16 08:38:19;;;;;;;9.45;5.13;;;;;;;33.66;31.30;99605.22;128209;1098;22362;-79
2021/08/16 08:40:52;;;;;;;7.57;4.57;;;;;;;33.93;31.40;99611.97;128146;1098;22463;-77
2021/08/16 08:43:27;;;;;;;6.07;4.30;;;;;;;33.98;30.88;99604.30;127750;1098;22392;-78
2021/08/16 08:45:57;;;;;;;8.65;5.45;;;;;;;33.87;31.19;99600.42;128084;1098;22281;-77
2021/08/16 08:48:31;;;;;;;6.80;4.95;;;;;;;34.15;31.47;99607.98;128143;1098;22365;-78
2021/08/16 08:51:01;;;;;;;10.73;4.83;;;;;;;34.39;30.97;99602.48;128148;1098;22420;-78
2021/08/16 08:53:31;;;;;;;9.00;5.90;;;;;;;34.58;30.64;99601.09;128128;1098;22812;-77
2021/08/16 08:56:01;;;;;;;7.30;5.90;;;;;;;34.58;30.53;99606.57;128388;1098;22514;-77
2021/08/16 08:58:31;;;;;;;8.98;5.03;;;;;;;34.70;29.76;99611.23;128203;1098;22352;-78
2021/08/16 09:01:00;;;;;;;5.23;3.83;;;;;;;34.79;29.23;99606.38;128569;1095;22372;-80
2021/08/16 09:03:30;;;;;;;7.18;4.40;;;;;;;34.82;28.90;99595.54;128376;1095;22343;-79
2021/08/16 09:06:02;;;;;;;6.58;4.33;;;;;;;34.70;28.36;99603.01;128647;1095;22344;-80
2021/08/16 09:08:37;;;;;;;6.40;3.93;;;;;;;34.51;28.75;99598.11;128653;1095;22362;-79
2021/08/16 09:11:16;;;;;;;6.05;3.98;;;;;;;34.76;28.58;99591.44;128636;1093;22343;-79
2021/08/16 09:14:01;;;;;;;13.83;4.27;;;;;;;35.15;28.23;99591.73;128719;1095;22369;-79
2021/08/16 09:16:37;;;;;;;5.88;3.15;;;;;;;35.40;27.54;99591.62;128629;1095;22343;-78
2021/08/16 09:19:24;;;;;;;10.33;4.03;;;;;;;35.39;26.87;99596.31;128603;1095;22362;-79
2021/08/16 09:22:06;;;;;;;8.25;4.00;;;;;;;35.30;27.57;99599.22;128734;1094;24508;-80
2021/08/16 09:24:36;;;;;;;4.80;3.23;;;;;;;35.45;26.82;99586.64;128379;1095;24489;-78
2021/08/16 09:27:10;;;;;;;5.75;3.83;;;;;;;35.53;26.57;99593.95;128687;1095;22466;-78
2021/08/16 09:29:51;;;;;;;12.75;4.35;;;;;;;35.65;26.38;99600.51;128421;1095;22343;-80
2021/08/16 09:32:31;;;;;;;22.25;6.70;;;;;;;35.57;26.17;99592.09;128626;1095;22348;-77
2021/08/16 09:35:08;;;;;;;8.85;3.35;;;;;;;35.24;26.45;99591.59;128370;1095;23929;-78
2021/08/16 09:37:40;;;;;;;5.20;3.38;;;;;;;35.23;25.93;99590.80;128518;1095;22379;-78
2021/08/16 09:40:15;;;;;;;13.90;3.93;;;;;;;35.24;26.22;99591.59;128361;1095;22354;-78
2021/08/16 09:42:55;;;;;;;6.00;3.55;;;;;;;35.09;25.55;99593.17;128610;1095;22346;-78
2021/08/16 09:45:29;;;;;;;7.40;3.50;;;;;;;35.29;25.51;99588.57;128677;1095;22348;-79
2021/08/16 09:48:02;;;;;;;4.93;2.95;;;;;;;35.49;25.20;99583.98;128901;1095;22446;-77
2021/08/16 09:50:44;;;;;;;8.40;3.67;;;;;;;35.54;24.93;99581.81;128962;1095;22349;-78
2021/08/16 09:53:18;;;;;;;7.20;2.75;;;;;;;35.58;24.79;99579.94;128676;1093;22346;-77
2021/08/16 09:56:02;;;;;;;10.83;3.83;;;;;;;35.63;24.15;99581.64;128571;1095;22353;-80
2021/08/16 09:58:32;;;;;;;5.90;2.73;;;;;;;35.54;24.12;99578.27;128404;1095;24288;-77
2021/08/16 10:01:03;;;;;;;8.85;3.05;;;;;;;35.60;24.12;99579.61;128444;1095;22386;-79
2021/08/16 10:03:37;;;;;;;10.08;3.40;;;;;;;35.33;24.19;99571.06;128426;1095;22351;-79
2021/08/16 10:06:09;;;;;;;5.28;3.33;;;;;;;35.32;24.02;99569.47;128790;1094;22328;-79
2021/08/16 10:08:45;;;;;;;8.48;3.30;;;;;;;35.38;24.10;99574.69;128646;1095;22651;-77
2021/08/16 10:11:18;;;;;;;6.38;3.20;;;;;;;35.47;24.33;99570.62;128745;1095;22706;-77
2021/08/16 10:13:53;;;;;;;9.48;3.30;;;;;;;35.68;23.93;99570.38;128445;1095;22742;-79
2021/08/16 10:16:33;;;;;;;5.15;3.28;;;;;;;35.88;23.73;99565.74;128535;1095;22357;-78
2021/08/16 10:19:11;;;;;;;9.93;3.10;;;;;;;36.03;23.79;99558.67;129062;1095;23934;-78
2021/08/16 10:21:43;;;;;;;4.30;2.43;;;;;;;36.16;22.40;99564.86;128968;1095;22328;-77
2021/08/16 10:24:23;;;;;;;4.65;2.70;;;;;;;36.19;22.16;99555.86;128461;1095;22333;-78
2021/08/16 10:27:11;;;;;;;9.45;2.93;;;;;;;36.26;22.00;99553.30;128360;1095;22343;-78
2021/08/16 10:29:42;;;;;;;6.45;2.78;;;;;;;36.27;21.38;99552.92;128612;1095;24486;-78
2021/08/16 10:32:20;;;;;;;4.68;2.73;;;;;;;36.16;21.38;99553.86;128369;1095;22361;-79
2021/08/16 10:34:50;;;;;;;4.83;2.80;;;;;;;36.00;20.78;99554.66;128579;1095;22360;-79
2021/08/16 10:37:20;;;;;;;6.93;2.70;;;;;;;35.91;21.12;99548.55;128714;1095;22383;-79
2021/08/16 10:39:51;;;;;;;3.78;2.08;;;;;;;35.83;21.04;99552.30;128655;1095;22443;-79
2021/08/16 10:42:33;;;;;;;3.90;2.60;;;;;;;35.54;21.32;99548.85;128716;1095;22326;-78
2021/08/16 10:45:04;;;;;;;4.25;2.50;;;;;;;35.25;21.69;99549.25;128398;1095;22362;-78
2021/08/16 10:47:36;;;;;;;6.05;2.18;;;;;;;34.86;21.60;99541.55;128647;1095;24512;-78
2021/08/16 10:50:19;;;;;;;10.35;2.25;;;;;;;34.48;21.79;99543.95;128531;1095;22362;-79
2021/08/16 10:53:06;;;;;;;5.63;2.10;;;;;;;34.23;21.81;99545.97;128423;1095;22354;-78
2021/08/16 10:55:39;;;;;;;5.15;2.58;;;;;;;34.01;22.09;99542.56;128431;1095;24479;-77
2021/08/16 10:58:11;;;;;;;3.03;1.98;;;;;;;33.81;22.43;99537.99;128426;1093;22340;-77
2021/08/16 11:00:41;;;;;;;5.93;2.43;;;;;;;33.64;22.54;99537.08;128339;1095;22350;-78
2021/08/16 11:03:13;;;;;;;5.50;2.58;;;;;;;33.44;22.68;99538.74;128352;1095;22463;-78
2021/08/16 11:05:43;;;;;;;3.98;2.00;;;;;;;33.30;22.48;99527.33;128941;1094;22334;-78
2021/08/16 11:08:14;;;;;;;6.38;2.35;;;;;;;33.31;22.64;99525.38;128550;1095;22361;-79
2021/08/16 11:10:48;;;;;;;3.23;2.23;;;;;;;33.29;22.90;99528.47;128581;1095;22356;-79
2021/08/16 11:13:20;;;;;;;13.28;2.90;;;;;;;33.26;23.18;99529.95;128760;1095;24234;-77
2021/08/16 11:15:51;;;;;;;7.83;2.40;;;;;;;33.07;22.22;99524.20;128590;1095;24158;-79
2021/08/16 11:18:22;;;;;;;4.28;2.43;;;;;;;32.80;22.72;99526.37;128945;1095;22510;-78
2021/08/16 11:21:01;;;;;;;2.45;2.25;;;;;;;32.57;22.35;99525.13;128887;1093;22333;-77
2021/08/16 11:23:31;;;;;;;3.57;1.80;;;;;;;32.38;23.11;99522.04;128366;1095;24570;-78
2021/08/16 11:26:01;;;;;;;3.23;2.03;;;;;;;32.30;22.93;99521.78;128657;1093;22344;-78
2021/08/16 11:28:32;;;;;;;2.65;2.08;;;;;;;32.23;22.96;99512.52;128361;1095;22350;-78
2021/08/16 11:31:08;;;;;;;4.28;1.90;;;;;;;32.10;23.31;99515.17;128648;1095;22349;-79
2021/08/16 11:33:38;;;;;;;5.60;2.30;;;;;;;31.99;23.40;99513.14;128383;1094;22356;-78
2021/08/16 11:36:14;;;;;;;3.48;2.30;;;;;;;31.96;23.56;99508.37;128642;1095;22827;-78
2021/08/16 11:38:53;;;;;;;4.10;2.13;;;;;;;31.94;24.30;99508.68;128426;1095;22353;-78